Central Oregon RPC :: LAKEVIEW, OR D

liberation: 2020-05-23  07:45     latitude: 42.184008     longitude: -120.572669 108 birds
# LOFT PRING MILES ARRIVAL SPEED ToWin
1 ROCKY TOP AU16-CORP-7701 144.546 2020-05-23 10:22:11.392 1618.435 00:00:00
2 ROCKY TOP AU19-ARPU-29012 144.546 2020-05-23 10:22:11.528 1618.412 00:00:00
3 ROCKY TOP AU19-CORP-4442 144.546 2020-05-23 10:22:12.786 1618.196 00:00:01
4 ROCKY TOP AU19-JEDD-0505 144.546 2020-05-23 10:22:19.381 1617.065 00:00:08
5 ROCKY TOP AU19-CORP-4464 144.546 2020-05-23 10:22:19.864 1616.983 00:00:08
6 TOPIGEONUSA AU17-CAPT-0054 151.225 2020-05-23 10:29:36.046 1616.976 00:00:09
7 ROCKY TOP AU19-CORP-4405 144.546 2020-05-23 10:22:39.045 1613.704 00:00:28
8 ROCKY TOP AU18-CORP-3300 144.546 2020-05-23 10:22:40.947 1613.379 00:00:30
9 ROCKY TOP AU19-CORP-4400 144.546 2020-05-23 10:22:44.841 1612.716 00:00:33
10 ROCKY TOP AU18-CORP-3353 144.546 2020-05-23 10:22:59.032 1610.301 00:00:48
11 ROCKY TOP AU19-CORP-4443 144.546 2020-05-23 10:23:03.437 1609.553 00:00:52
12 STEELE LOFT AU19-CORP-4045 151.458 2020-05-23 10:30:48.003 1607.754 00:01:06
13 STEELE LOFT AU18-CORP-4093 151.458 2020-05-23 10:30:56.124 1606.443 00:01:14
14 ROCKY TOP AU18-CORP-3351 144.546 2020-05-23 10:24:11.837 1598.027 00:02:00
15 ROCKY TOP AU19-JEDD-0507 144.546 2020-05-23 10:24:18.623 1596.893 00:02:07
16 STEELE LOFT AU19-CORP-4006 151.458 2020-05-23 10:32:00.596 1596.107 00:02:18
17 RUETER FAMILY LOFT AU19-CORP-5456 179.062 2020-05-23 11:02:34.060 1595.148 00:02:51
18 RUETER FAMILY LOFT AU19-CORP-5438 179.062 2020-05-23 11:02:35.112 1595.007 00:02:52
19 ROCKY TOP AU16-CORP-7143 144.546 2020-05-23 10:24:34.915 1594.176 00:02:24
20 ROCKY TOP AU18-CORP-3310 144.546 2020-05-23 10:24:35.291 1594.113 00:02:24
21 RUETER FAMILY LOFT AU19-CORP-5289 179.062 2020-05-23 11:02:42.381 1594.030 00:02:59
22 ROCKY TOP AU19-CORP-4435 144.546 2020-05-23 10:24:37.214 1593.793 00:02:26
23 ROCKY TOP AU18-CORP-3313 144.546 2020-05-23 10:24:42.527 1592.909 00:02:31
24 RUETER FAMILY LOFT AU19-CORP-5419 179.062 2020-05-23 11:02:51.566 1592.796 00:03:08
25 RUETER FAMILY LOFT AU19-CORP-5310 179.062 2020-05-23 11:02:53.907 1592.482 00:03:10
26 ROCKY TOP AU19-CORP-4454 144.546 2020-05-23 10:24:59.044 1590.168 00:02:48
27 RUETER FAMILY LOFT AU19-CORP-5358 179.062 2020-05-23 11:03:23.717 1588.494 00:03:40
28 RUETER FAMILY LOFT AU19-CORP-5295 179.062 2020-05-23 11:03:32.898 1587.270 00:03:49
29 STEELE LOFT AU19-CORP-4022 151.458 2020-05-23 10:33:08.744 1585.326 00:03:26
30 STEELE LOFT AU19-CORP-4039 151.458 2020-05-23 10:33:11.077 1584.959 00:03:29
31 TOPIGEONUSA AU18-CORP-4253 151.225 2020-05-23 10:33:14.556 1581.974 00:03:47
32 ROCKY TOP AU16-CORP-7706 144.546 2020-05-23 10:25:54.361 1581.057 00:03:43
33 ROCKY TOP AU17-OTC-0317 144.546 2020-05-23 10:25:55.642 1580.847 00:03:44
34 ROCKY TOP AU18-CORP-3349 144.546 2020-05-23 10:25:56.012 1580.787 00:03:45
35 RUETER FAMILY LOFT AU19-CORP-5359 179.062 2020-05-23 11:04:48.121 1577.310 00:05:05
36 STEELE LOFT AU19-CORP-4004 151.458 2020-05-23 10:34:01.467 1577.084 00:04:19
37 RUETER FAMILY LOFT AU18-CORP-2626 179.062 2020-05-23 11:04:51.276 1576.895 00:05:08
38 RUETER FAMILY LOFT AU19-CORP-5317 179.062 2020-05-23 11:04:55.574 1576.330 00:05:12
39 RUETER FAMILY LOFT AU17-CORP-0498 179.062 2020-05-23 11:05:03.940 1575.232 00:05:20
40 ROCKY TOP AU18-CORP-3354 144.546 2020-05-23 10:26:43.137 1573.109 00:04:32
41 TOPIGEONUSA AU17-VLJ-0728 151.225 2020-05-23 10:34:45.483 1567.852 00:05:18
42 TOPIGEONUSA AU19-CORP-5140 151.225 2020-05-23 10:34:48.507 1567.387 00:05:21
43 RUETER FAMILY LOFT AU17-CORP-0521 179.062 2020-05-23 11:06:33.264 1563.597 00:06:50
44 RUETER FAMILY LOFT AU19-CORP-5367 179.062 2020-05-23 11:06:47.571 1561.749 00:07:04
45 RUETER FAMILY LOFT AU19-CORP-5376 179.062 2020-05-23 11:06:49.958 1561.441 00:07:06
46 RUETER FAMILY LOFT AU19-CORP-5335 179.062 2020-05-23 11:06:54.303 1560.881 00:07:11
47 STEELE LOFT AU19-CORP-4007 151.458 2020-05-23 10:35:48.743 1560.576 00:06:06
48 RUETER FAMILY LOFT AU19-CORP-5330 179.062 2020-05-23 11:06:59.420 1560.222 00:07:16
49 RUETER FAMILY LOFT AU19-CORP-5445 179.062 2020-05-23 11:07:09.209 1558.963 00:07:26
50 RUETER FAMILY LOFT AU19-CORP-5351 179.062 2020-05-23 11:07:11.600 1558.656 00:07:28
51 RUETER FAMILY LOFT AU19-CORP-5447 179.062 2020-05-23 11:07:45.373 1554.328 00:08:02
52 TIM GRAVES AU17-FOYS-3050 143.361 2020-05-23 10:27:54.750 1548.782 00:07:01
53 RUETER FAMILY LOFT AU19-CORP-5458 179.062 2020-05-23 11:08:41.404 1547.202 00:08:58
54 TIM GRAVES AU17-CORP-0812 143.361 2020-05-23 10:28:14.009 1545.737 00:07:20
55 TOPIGEONUSA AU19-CORP-5128 151.225 2020-05-23 10:37:27.489 1543.305 00:08:00
56 RUETER FAMILY LOFT AU19-CORP-5280 179.062 2020-05-23 11:09:20.454 1542.274 00:09:37
57 RUETER FAMILY LOFT AU19-CORP-5413 179.062 2020-05-23 11:09:20.826 1542.228 00:09:37
58 AMERICAN LOFT AU18-CORP-2818 149.238 2020-05-23 10:37:38.743 1521.377 00:10:21
59 AMERICAN LOFT AU18-CORP-2550 149.238 2020-05-23 10:37:40.483 1521.121 00:10:23
60 AMERICAN LOFT AU19-CORP-4713 149.238 2020-05-23 10:37:42.684 1520.798 00:10:25
61 HENDRICKSON FAMILY LOFT AU19-CORP-4372 149.32 2020-05-23 10:38:06.452 1518.151 00:10:44
62 AMERICAN LOFT AU19-CORP-4711 149.238 2020-05-23 10:38:40.462 1512.366 00:11:23
63 HENDRICKSON FAMILY LOFT AU18-CORP-4005 149.32 2020-05-23 10:38:52.676 1511.425 00:11:30
64 HENDRICKSON FAMILY LOFT AU18-CORP-4008 149.32 2020-05-23 10:39:07.928 1509.219 00:11:45
65 RUETER FAMILY LOFT AU19-CORP-5455 179.062 2020-05-23 11:13:53.282 1508.702 00:14:10
66 TIM GRAVES AU17-FHI-1014 143.361 2020-05-23 10:33:12.533 1500.016 00:12:18
67 HENDRICKSON FAMILY LOFT AU19-CORP-4366 149.32 2020-05-23 10:40:51.101 1494.461 00:13:28
68 HENDRICKSON FAMILY LOFT AU19-CORP-4359 149.32 2020-05-23 10:40:52.112 1494.318 00:13:29
69 HENDRICKSON FAMILY LOFT AU19-CORP-4360 149.32 2020-05-23 10:40:54.054 1494.043 00:13:31
70 HENDRICKSON FAMILY LOFT AU19-ARPU-29030 149.32 2020-05-23 10:41:01.468 1492.994 00:13:39
71 HENDRICKSON FAMILY LOFT AU18-CORP-4012 149.32 2020-05-23 10:41:02.239 1492.885 00:13:39
72 HENDRICKSON FAMILY LOFT AU19-ARPU-29019 149.32 2020-05-23 10:41:08.101 1492.057 00:13:45
73 HENDRICKSON FAMILY LOFT AU19-CORP-4385 149.32 2020-05-23 10:41:11.939 1491.515 00:13:49
74 HENDRICKSON FAMILY LOFT AU18-CORP-4028 149.32 2020-05-23 10:41:14.426 1491.164 00:13:52
75 STEELE LOFT AU19-CORP-4009 151.458 2020-05-23 10:43:58.391 1489.417 00:14:16
76 AMERICAN LOFT AU19-CORP-4690 149.238 2020-05-23 10:41:45.375 1485.997 00:14:28
77 AMERICAN LOFT AU19-CORP-4681 149.238 2020-05-23 10:41:48.878 1485.506 00:14:31
78 RUETER FAMILY LOFT AU18-CORP-2744 179.062 2020-05-23 11:18:35.764 1475.447 00:18:52
79 TIM GRAVES AU17-FHI-0202 143.361 2020-05-23 10:36:26.578 1471.720 00:15:33
80 TIM GRAVES AU13-TCW-3849 143.361 2020-05-23 10:36:26.695 1471.703 00:15:33
81 RUETER FAMILY LOFT AU18-CORP-2643 179.062 2020-05-23 11:20:46.323 1460.568 00:21:03
82 AMERICAN LOFT AU19-CORP-4605 149.238 2020-05-23 10:46:07.248 1450.188 00:18:50
83 TIM GRAVES AU19-CORP-4207 143.361 2020-05-23 10:39:07.044 1449.114 00:18:13
84 TIM GRAVES AU14-CORP-1963 143.361 2020-05-23 10:39:09.407 1448.786 00:18:15
85 AMERICAN LOFT AU19-CORP-4706 149.238 2020-05-23 10:48:04.298 1434.735 00:20:47
86 HENDRICKSON FAMILY LOFT AU19-ARPU-29020 149.32 2020-05-23 10:48:35.542 1431.451 00:21:13
87 AMERICAN LOFT AU17-CORP-0062 149.238 2020-05-23 10:48:34.131 1430.848 00:21:17
88 AMERICAN LOFT AU19-CORP-4726 149.238 2020-05-23 10:49:14.045 1425.682 00:21:57
89 ROCKY TOP AU17-CORP-0798 144.546 2020-05-23 10:43:39.063 1424.014 00:21:28
90 TIM GRAVES AU17-CORP-2034 143.361 2020-05-23 10:43:41.500 1412.019 00:22:47
91 TIM GRAVES AU16-AUB-0602 143.361 2020-05-23 10:45:18.510 1399.357 00:24:24
92 RUETER FAMILY LOFT AU18-CORP-2635 179.062 2020-05-23 11:30:57.933 1394.681 00:31:14
93 TIM GRAVES AU19-CORP-4239 143.361 2020-05-23 10:46:41.814 1388.664 00:25:48
94 TOPIGEONUSA AU19-CORP-4912 151.225 2020-05-23 10:57:09.912 1385.035 00:27:43
95 ROCKY TOP AU18-CORP-3365 144.546 2020-05-23 10:50:23.268 1372.267 00:28:12
96 AMERICAN LOFT AU19-CORP-4602 149.238 2020-05-23 10:56:29.148 1371.690 00:29:12
97 ROCKY TOP AU18-CORP-3343 144.546 2020-05-23 10:50:40.681 1370.122 00:28:29
98 STEELE LOFT AU19-CORP-4008 151.458 2020-05-23 11:01:50.562 1354.207 00:32:08
99 HENDRICKSON FAMILY LOFT AU19-CORP-4354 149.32 2020-05-23 11:01:16.829 1338.918 00:33:54
100 HENDRICKSON FAMILY LOFT AU18-CORP-4046 149.32 2020-05-23 11:03:47.717 1321.980 00:36:25
101 AMERICAN LOFT AU19-CORP-4650 149.238 2020-05-23 11:03:45.324 1321.520 00:36:28
102 HENDRICKSON FAMILY LOFT AU19-CORP-4364 149.32 2020-05-23 11:03:52.624 1321.437 00:36:30
103 TOPIGEONUSA AU14-CORP-1078 151.225 2020-05-23 11:15:44.662 1262.930 00:46:18
104 HENDRICKSON FAMILY LOFT AU18-CORP-4006 149.32 2020-05-23 11:13:50.433 1258.393 00:46:28
105 RUETER FAMILY LOFT AU19-CORP-5336 179.062 2020-05-23 12:05:25.972 1210.100 01:05:42
106 HENDRICKSON FAMILY LOFT AU18-CORP-4034 149.32 2020-05-23 11:48:16.287 1080.289 01:20:53
107 HENDRICKSON FAMILY LOFT AU18-CORP-4007 149.32 2020-05-24 06:31:17.767 299.180 11:56:02
TIM GRAVES AU16-FHI-0243 0 0000-00-00 00:00:00.000 0.000 00:00:00